Skip to main content
NVIR logo

NVIR · Horizon Kinetics Energy and Remediation ETF ETF

Alerts for NVIR
$40.62 -0.19 (-0.46%) At close · Sep 4

Weekly off-exchange (dark pool / OTC) trading volume reported to FINRA under its OTC/ATS Transparency data. ATS volume is executed on alternating trading systems (dark pools); non-ATS OTC is other over-the-counter dealer volume. The off-exchange share is total off-exchange volume as a percentage of consolidated weekly trading volume for the same Monday–Friday week.

Off-Exchange Volume History

Week Start ATS Volume Non-ATS OTC Volume Total Off-Exchange % of FINRA Weekly Volume
2026-07-27 100 395 495 55.0%
2026-07-20 0 218 218 7.8%
2026-07-13 100 915 1,015 37.6%
2026-07-06 2 69 71 6.5%
2026-06-29 0 286 286 23.8%
2026-06-22 0 461 461 27.1%
2026-06-15 130 1,280 1,410 32.8%
2026-06-08 0 791 791 43.9%
2026-06-01 24 1,595 1,619 32.4%
2026-05-25 0 2,085 2,085 69.5%
2026-05-18 0 2,062 2,062 51.5%
2026-05-11 58 3,955 4,013 66.9%
2026-05-04 0 3,042 3,042 53.4%
2026-04-27 100 1,538 1,638 56.5%
2026-04-20 100 4,401 4,501 51.1%
2026-04-13 0 934 934 46.7%
2026-04-06 0 5,134 5,134 59.7%
2026-03-30 90 6,980 7,070 79.4%
2026-03-23 1,019 11,550 12,569 83.8%
2026-03-16 1,024 27,555 28,579 74.6%
2026-03-09 100 20,196 20,296 74.3%
2026-03-02 812 797 1,609 43.5%
2026-02-23 0 4,334 4,334 81.8%
2026-02-16 0 876 876 48.7%
2026-02-09 100 469 569 35.6%
2026-02-02 6 2,559 2,565 57.0%
2026-01-26 10 224 234 26.0%
2026-01-19 1 2,597 2,598 96.2%
2026-01-12 5 564 569 17.2%
2026-01-05 462 5,334 5,796 65.9%
2025-12-29 12 1,538 1,550 41.9%
2025-12-22 15 871 886 55.4%
2025-12-15 0 1,844 1,844 36.9%
2025-12-08 30 1,814 1,844 48.5%
2025-12-01 0 377 377 37.7%
2025-11-24 0 221 221 20.1%
2025-11-17 89 1,806 1,895 75.8%
2025-11-10 0 777 777 48.6%
2025-11-03 10 1,043 1,053 55.4%
2025-10-27 169 1,569 1,738 54.3%
2025-10-20 540 1,073 1,613 50.4%
2025-10-13 674 1,955 2,629 67.4%
2025-10-06 100 241 341 16.2%
2025-09-29 0 589 589 42.1%
2025-09-22 270 1,514 1,784 29.7%
2025-09-15 100 1,887 1,987 58.4%
2025-09-08 1 591 592 25.7%
Showing 1–47 of 47 weeks